Terminal Aerodrome Forecast
Issued by NWS

Home | Current Version | Previous Version | Text Only | Print | Product List | Glossary On
Versions: 1 2 3 4 5 6 7 8 9 10 11 12 13 14 15 16 17 18 19 20 21 22 23 24 25 26 27 28 29 30
000
FTUS45 KGGW 291100
TAFOLF
TAF
KOLF 291134Z 2912/3012 28009KT P6SM FEW240
     FM292100 27013KT P6SM SCT250
     FM300300 25007KT P6SM SCT240=

USA.gov is the U.S. government's official web portal to all federal, state and local government web resources and services.